sensor_id;sensor_type;location;lat;lon;timestamp;P1;durP1;ratioP1;P2;durP2;ratioP2
23222;SDS011;11780;13.904;100.620;2023-11-18T00:00:56;24.40;;;14.17;;
23222;SDS011;11780;13.904;100.620;2023-11-18T00:03:27;24.75;;;14.02;;
23222;SDS011;11780;13.904;100.620;2023-11-18T00:05:58;21.70;;;14.10;;
23222;SDS011;11780;13.904;100.620;2023-11-18T00:11:00;25.67;;;14.13;;
23222;SDS011;11780;13.904;100.620;2023-11-18T00:13:30;22.75;;;15.23;;
23222;SDS011;11780;13.904;100.620;2023-11-18T00:16:00;22.15;;;13.15;;
23222;SDS011;11780;13.904;100.620;2023-11-18T00:18:31;26.10;;;11.98;;
23222;SDS011;11780;13.904;100.620;2023-11-18T00:21:01;20.08;;;11.48;;
23222;SDS011;11780;13.904;100.620;2023-11-18T00:23:31;18.60;;;10.57;;
23222;SDS011;11780;13.904;100.620;2023-11-18T00:26:01;21.55;;;11.30;;
23222;SDS011;11780;13.904;100.620;2023-11-18T00:28:32;19.17;;;12.33;;
23222;SDS011;11780;13.904;100.620;2023-11-18T00:31:02;22.08;;;10.73;;
23222;SDS011;11780;13.904;100.620;2023-11-18T00:33:34;17.38;;;10.05;;
23222;SDS011;11780;13.904;100.620;2023-11-18T00:36:04;21.90;;;10.13;;
23222;SDS011;11780;13.904;100.620;2023-11-18T00:38:36;26.08;;;11.00;;
23222;SDS011;11780;13.904;100.620;2023-11-18T00:41:06;20.25;;;10.80;;
23222;SDS011;11780;13.904;100.620;2023-11-18T00:43:36;23.17;;;11.75;;
23222;SDS011;11780;13.904;100.620;2023-11-18T00:49:05;21.65;;;12.50;;
23222;SDS011;11780;13.904;100.620;2023-11-18T00:51:35;23.48;;;13.10;;
23222;SDS011;11780;13.904;100.620;2023-11-18T00:54:06;24.50;;;12.23;;
23222;SDS011;11780;13.904;100.620;2023-11-18T00:56:40;23.47;;;12.03;;
23222;SDS011;11780;13.904;100.620;2023-11-18T00:59:10;23.42;;;11.85;;
23222;SDS011;11780;13.904;100.620;2023-11-18T01:02:03;26.00;;;13.38;;
23222;SDS011;11780;13.904;100.620;2023-11-18T01:04:34;24.00;;;12.43;;
23222;SDS011;11780;13.904;100.620;2023-11-18T01:07:05;21.52;;;12.52;;
23222;SDS011;11780;13.904;100.620;2023-11-18T01:10:37;28.77;;;12.43;;
23222;SDS011;11780;13.904;100.620;2023-11-18T01:12:59;24.70;;;13.13;;
23222;SDS011;11780;13.904;100.620;2023-11-18T01:15:30;25.83;;;13.20;;
23222;SDS011;11780;13.904;100.620;2023-11-18T01:18:03;29.27;;;11.83;;
23222;SDS011;11780;13.904;100.620;2023-11-18T01:23:30;28.25;;;11.20;;
23222;SDS011;11780;13.904;100.620;2023-11-18T01:26:01;24.80;;;11.60;;
23222;SDS011;11780;13.904;100.620;2023-11-18T01:28:34;23.67;;;11.38;;
23222;SDS011;11780;13.904;100.620;2023-11-18T01:31:11;22.48;;;11.65;;
23222;SDS011;11780;13.904;100.620;2023-11-18T01:33:42;22.08;;;11.18;;
23222;SDS011;11780;13.904;100.620;2023-11-18T01:36:14;19.00;;;10.30;;
23222;SDS011;11780;13.904;100.620;2023-11-18T01:38:44;22.77;;;8.75;;
23222;SDS011;11780;13.904;100.620;2023-11-18T01:41:15;19.38;;;7.68;;
23222;SDS011;11780;13.904;100.620;2023-11-18T01:47:12;13.80;;;7.28;;
23222;SDS011;11780;13.904;100.620;2023-11-18T01:49:42;18.10;;;7.40;;
23222;SDS011;11780;13.904;100.620;2023-11-18T01:56:15;21.95;;;7.60;;
23222;SDS011;11780;13.904;100.620;2023-11-18T01:58:46;20.97;;;6.83;;
23222;SDS011;11780;13.904;100.620;2023-11-18T02:01:18;21.25;;;7.57;;
23222;SDS011;11780;13.904;100.620;2023-11-18T02:03:49;16.07;;;7.47;;
23222;SDS011;11780;13.904;100.620;2023-11-18T02:06:19;26.27;;;7.95;;
23222;SDS011;11780;13.904;100.620;2023-11-18T02:08:50;23.23;;;7.13;;
23222;SDS011;11780;13.904;100.620;2023-11-18T02:11:24;23.23;;;7.70;;
23222;SDS011;11780;13.904;100.620;2023-11-18T02:14:16;24.50;;;8.05;;
23222;SDS011;11780;13.904;100.620;2023-11-18T02:17:15;21.63;;;7.75;;
23222;SDS011;11780;13.904;100.620;2023-11-18T02:20:14;18.05;;;7.15;;
23222;SDS011;11780;13.904;100.620;2023-11-18T02:22:53;19.02;;;7.00;;
23222;SDS011;11780;13.904;100.620;2023-11-18T02:26:04;21.25;;;9.23;;
23222;SDS011;11780;13.904;100.620;2023-11-18T02:28:38;17.60;;;7.43;;
23222;SDS011;11780;13.904;100.620;2023-11-18T02:31:52;19.38;;;8.43;;
23222;SDS011;11780;13.904;100.620;2023-11-18T02:37:49;18.90;;;8.73;;
23222;SDS011;11780;13.904;100.620;2023-11-18T02:40:43;27.88;;;7.93;;
23222;SDS011;11780;13.904;100.620;2023-11-18T02:43:37;22.17;;;8.00;;
23222;SDS011;11780;13.904;100.620;2023-11-18T02:46:58;21.75;;;8.23;;
23222;SDS011;11780;13.904;100.620;2023-11-18T02:49:29;18.38;;;7.88;;
23222;SDS011;11780;13.904;100.620;2023-11-18T02:52:00;23.25;;;8.15;;
23222;SDS011;11780;13.904;100.620;2023-11-18T02:54:30;22.85;;;8.30;;
23222;SDS011;11780;13.904;100.620;2023-11-18T02:57:00;20.90;;;8.77;;
23222;SDS011;11780;13.904;100.620;2023-11-18T02:59:30;19.92;;;8.70;;
23222;SDS011;11780;13.904;100.620;2023-11-18T03:02:01;18.40;;;7.27;;
23222;SDS011;11780;13.904;100.620;2023-11-18T03:04:32;19.17;;;7.20;;
23222;SDS011;11780;13.904;100.620;2023-11-18T03:09:37;22.02;;;8.48;;
23222;SDS011;11780;13.904;100.620;2023-11-18T03:12:09;21.60;;;7.60;;
23222;SDS011;11780;13.904;100.620;2023-11-18T03:14:39;19.30;;;7.22;;
23222;SDS011;11780;13.904;100.620;2023-11-18T03:17:09;35.97;;;9.13;;
23222;SDS011;11780;13.904;100.620;2023-11-18T03:19:40;17.55;;;7.60;;
23222;SDS011;11780;13.904;100.620;2023-11-18T03:22:11;23.20;;;8.55;;
23222;SDS011;11780;13.904;100.620;2023-11-18T03:24:42;24.55;;;8.77;;
23222;SDS011;11780;13.904;100.620;2023-11-18T03:27:13;17.65;;;7.65;;
23222;SDS011;11780;13.904;100.620;2023-11-18T03:29:43;29.55;;;8.63;;
23222;SDS011;11780;13.904;100.620;2023-11-18T03:32:20;19.67;;;8.50;;
23222;SDS011;11780;13.904;100.620;2023-11-18T03:34:50;28.23;;;9.63;;
23222;SDS011;11780;13.904;100.620;2023-11-18T03:37:21;22.87;;;8.93;;
23222;SDS011;11780;13.904;100.620;2023-11-18T03:39:52;17.85;;;8.43;;
23222;SDS011;11780;13.904;100.620;2023-11-18T03:42:22;26.40;;;8.43;;
23222;SDS011;11780;13.904;100.620;2023-11-18T03:44:53;17.40;;;8.10;;
23222;SDS011;11780;13.904;100.620;2023-11-18T03:47:23;18.58;;;8.98;;
23222;SDS011;11780;13.904;100.620;2023-11-18T03:49:53;21.80;;;8.63;;
23222;SDS011;11780;13.904;100.620;2023-11-18T03:52:26;20.77;;;9.35;;
23222;SDS011;11780;13.904;100.620;2023-11-18T03:54:59;20.50;;;8.82;;
23222;SDS011;11780;13.904;100.620;2023-11-18T03:57:29;19.30;;;8.98;;
23222;SDS011;11780;13.904;100.620;2023-11-18T04:00:00;27.17;;;10.77;;
23222;SDS011;11780;13.904;100.620;2023-11-18T04:02:35;22.40;;;9.63;;
23222;SDS011;11780;13.904;100.620;2023-11-18T04:05:07;14.48;;;8.02;;
23222;SDS011;11780;13.904;100.620;2023-11-18T04:07:39;21.88;;;8.90;;
23222;SDS011;11780;13.904;100.620;2023-11-18T04:10:11;21.45;;;8.55;;
23222;SDS011;11780;13.904;100.620;2023-11-18T04:12:41;19.92;;;10.25;;
23222;SDS011;11780;13.904;100.620;2023-11-18T04:15:15;20.38;;;9.13;;
23222;SDS011;11780;13.904;100.620;2023-11-18T04:17:46;17.08;;;7.50;;
23222;SDS011;11780;13.904;100.620;2023-11-18T04:20:16;17.77;;;8.23;;
23222;SDS011;11780;13.904;100.620;2023-11-18T04:22:47;17.60;;;8.95;;
23222;SDS011;11780;13.904;100.620;2023-11-18T04:25:18;19.33;;;8.77;;
23222;SDS011;11780;13.904;100.620;2023-11-18T04:27:49;17.53;;;8.20;;
23222;SDS011;11780;13.904;100.620;2023-11-18T04:30:23;25.33;;;9.65;;
23222;SDS011;11780;13.904;100.620;2023-11-18T04:32:56;15.73;;;6.93;;
23222;SDS011;11780;13.904;100.620;2023-11-18T04:35:26;15.93;;;7.63;;
23222;SDS011;11780;13.904;100.620;2023-11-18T04:37:56;19.55;;;7.13;;
23222;SDS011;11780;13.904;100.620;2023-11-18T04:40:27;18.23;;;9.23;;
23222;SDS011;11780;13.904;100.620;2023-11-18T04:42:57;15.82;;;7.43;;
23222;SDS011;11780;13.904;100.620;2023-11-18T04:45:27;13.88;;;6.22;;
23222;SDS011;11780;13.904;100.620;2023-11-18T04:47:59;19.08;;;7.32;;
23222;SDS011;11780;13.904;100.620;2023-11-18T04:50:30;16.50;;;6.43;;
23222;SDS011;11780;13.904;100.620;2023-11-18T04:53:02;12.25;;;6.57;;
23222;SDS011;11780;13.904;100.620;2023-11-18T04:55:33;18.07;;;6.60;;
23222;SDS011;11780;13.904;100.620;2023-11-18T05:00:38;19.77;;;6.78;;
23222;SDS011;11780;13.904;100.620;2023-11-18T05:03:11;19.20;;;7.45;;
23222;SDS011;11780;13.904;100.620;2023-11-18T05:05:45;17.90;;;6.47;;
23222;SDS011;11780;13.904;100.620;2023-11-18T05:08:21;17.40;;;6.65;;
23222;SDS011;11780;13.904;100.620;2023-11-18T05:10:55;15.35;;;6.75;;
23222;SDS011;11780;13.904;100.620;2023-11-18T05:13:27;16.70;;;6.65;;
23222;SDS011;11780;13.904;100.620;2023-11-18T05:15:57;14.10;;;7.25;;
23222;SDS011;11780;13.904;100.620;2023-11-18T05:18:28;14.27;;;6.45;;
23222;SDS011;11780;13.904;100.620;2023-11-18T05:21:03;16.45;;;6.63;;
23222;SDS011;11780;13.904;100.620;2023-11-18T05:23:38;15.90;;;6.18;;
23222;SDS011;11780;13.904;100.620;2023-11-18T05:26:10;16.92;;;6.90;;
23222;SDS011;11780;13.904;100.620;2023-11-18T05:28:43;14.70;;;6.65;;
23222;SDS011;11780;13.904;100.620;2023-11-18T05:31:15;15.10;;;6.47;;
23222;SDS011;11780;13.904;100.620;2023-11-18T05:33:49;17.73;;;6.50;;
23222;SDS011;11780;13.904;100.620;2023-11-18T05:36:24;13.65;;;6.70;;
23222;SDS011;11780;13.904;100.620;2023-11-18T05:38:58;12.57;;;5.85;;
23222;SDS011;11780;13.904;100.620;2023-11-18T05:41:28;11.32;;;6.03;;
23222;SDS011;11780;13.904;100.620;2023-11-18T05:43:59;15.50;;;6.70;;
23222;SDS011;11780;13.904;100.620;2023-11-18T05:46:30;11.33;;;5.83;;
23222;SDS011;11780;13.904;100.620;2023-11-18T05:49:02;17.48;;;7.07;;
23222;SDS011;11780;13.904;100.620;2023-11-18T05:51:37;16.45;;;5.88;;
23222;SDS011;11780;13.904;100.620;2023-11-18T05:54:07;13.98;;;5.85;;
23222;SDS011;11780;13.904;100.620;2023-11-18T05:56:37;13.75;;;5.70;;
23222;SDS011;11780;13.904;100.620;2023-11-18T05:59:07;19.38;;;5.93;;
23222;SDS011;11780;13.904;100.620;2023-11-18T06:01:37;13.80;;;5.93;;
23222;SDS011;11780;13.904;100.620;2023-11-18T06:04:08;15.52;;;5.90;;
23222;SDS011;11780;13.904;100.620;2023-11-18T06:06:38;15.02;;;6.15;;
23222;SDS011;11780;13.904;100.620;2023-11-18T06:09:08;12.98;;;6.10;;
23222;SDS011;11780;13.904;100.620;2023-11-18T06:11:47;16.33;;;7.18;;
23222;SDS011;11780;13.904;100.620;2023-11-18T06:14:19;18.15;;;6.40;;
23222;SDS011;11780;13.904;100.620;2023-11-18T06:16:50;14.02;;;5.80;;
23222;SDS011;11780;13.904;100.620;2023-11-18T06:19:21;15.73;;;6.57;;
23222;SDS011;11780;13.904;100.620;2023-11-18T06:21:51;11.45;;;5.35;;
23222;SDS011;11780;13.904;100.620;2023-11-18T06:24:21;16.13;;;5.57;;
23222;SDS011;11780;13.904;100.620;2023-11-18T06:26:52;12.40;;;5.60;;
23222;SDS011;11780;13.904;100.620;2023-11-18T06:29:22;11.95;;;6.45;;
23222;SDS011;11780;13.904;100.620;2023-11-18T06:31:53;15.73;;;7.07;;
23222;SDS011;11780;13.904;100.620;2023-11-18T06:34:23;11.27;;;5.93;;
23222;SDS011;11780;13.904;100.620;2023-11-18T06:36:53;11.75;;;6.03;;
23222;SDS011;11780;13.904;100.620;2023-11-18T06:39:26;17.38;;;6.72;;
23222;SDS011;11780;13.904;100.620;2023-11-18T06:41:59;13.00;;;6.10;;
23222;SDS011;11780;13.904;100.620;2023-11-18T06:44:29;13.85;;;6.30;;
23222;SDS011;11780;13.904;100.620;2023-11-18T06:46:59;15.68;;;6.40;;
23222;SDS011;11780;13.904;100.620;2023-11-18T06:49:31;17.05;;;6.38;;
23222;SDS011;11780;13.904;100.620;2023-11-18T06:52:06;17.45;;;6.60;;
23222;SDS011;11780;13.904;100.620;2023-11-18T06:54:37;13.52;;;6.07;;
23222;SDS011;11780;13.904;100.620;2023-11-18T06:57:07;14.43;;;6.22;;
23222;SDS011;11780;13.904;100.620;2023-11-18T06:59:37;13.85;;;6.30;;
23222;SDS011;11780;13.904;100.620;2023-11-18T07:02:07;16.00;;;5.85;;
23222;SDS011;11780;13.904;100.620;2023-11-18T07:04:39;13.05;;;6.00;;
23222;SDS011;11780;13.904;100.620;2023-11-18T07:07:09;13.75;;;6.28;;
23222;SDS011;11780;13.904;100.620;2023-11-18T07:09:41;9.82;;;5.63;;
23222;SDS011;11780;13.904;100.620;2023-11-18T07:12:17;13.95;;;6.20;;
23222;SDS011;11780;13.904;100.620;2023-11-18T07:17:18;17.85;;;6.95;;
23222;SDS011;11780;13.904;100.620;2023-11-18T07:19:48;15.90;;;6.43;;
23222;SDS011;11780;13.904;100.620;2023-11-18T07:22:19;18.98;;;6.90;;
23222;SDS011;11780;13.904;100.620;2023-11-18T07:24:49;16.83;;;6.50;;
23222;SDS011;11780;13.904;100.620;2023-11-18T07:27:20;13.63;;;6.47;;
23222;SDS011;11780;13.904;100.620;2023-11-18T07:29:50;10.85;;;6.82;;
23222;SDS011;11780;13.904;100.620;2023-11-18T07:32:20;13.30;;;6.32;;
23222;SDS011;11780;13.904;100.620;2023-11-18T07:34:50;10.25;;;6.18;;
23222;SDS011;11780;13.904;100.620;2023-11-18T07:37:21;14.48;;;6.78;;
23222;SDS011;11780;13.904;100.620;2023-11-18T07:39:51;17.30;;;6.82;;
23222;SDS011;11780;13.904;100.620;2023-11-18T07:42:24;12.40;;;6.30;;
23222;SDS011;11780;13.904;100.620;2023-11-18T07:44:55;14.88;;;6.53;;
23222;SDS011;11780;13.904;100.620;2023-11-18T07:47:26;15.00;;;7.00;;
23222;SDS011;11780;13.904;100.620;2023-11-18T07:49:58;14.45;;;6.50;;
23222;SDS011;11780;13.904;100.620;2023-11-18T07:52:33;17.13;;;7.03;;
23222;SDS011;11780;13.904;100.620;2023-11-18T07:55:04;13.23;;;6.77;;
23222;SDS011;11780;13.904;100.620;2023-11-18T07:57:36;14.10;;;6.75;;
23222;SDS011;11780;13.904;100.620;2023-11-18T08:00:07;14.95;;;6.90;;
23222;SDS011;11780;13.904;100.620;2023-11-18T08:02:40;12.82;;;7.18;;
23222;SDS011;11780;13.904;100.620;2023-11-18T08:05:11;15.93;;;7.25;;
23222;SDS011;11780;13.904;100.620;2023-11-18T08:07:46;12.95;;;7.15;;
23222;SDS011;11780;13.904;100.620;2023-11-18T08:10:16;12.77;;;6.68;;
23222;SDS011;11780;13.904;100.620;2023-11-18T08:12:48;15.05;;;7.22;;
23222;SDS011;11780;13.904;100.620;2023-11-18T08:15:18;12.25;;;6.60;;
23222;SDS011;11780;13.904;100.620;2023-11-18T08:17:48;18.20;;;7.25;;
23222;SDS011;11780;13.904;100.620;2023-11-18T08:20:19;15.97;;;9.17;;
23222;SDS011;11780;13.904;100.620;2023-11-18T08:22:54;18.90;;;9.82;;
23222;SDS011;11780;13.904;100.620;2023-11-18T08:25:24;15.45;;;8.85;;
23222;SDS011;11780;13.904;100.620;2023-11-18T08:27:55;17.93;;;8.57;;
23222;SDS011;11780;13.904;100.620;2023-11-18T08:30:25;17.48;;;8.13;;
23222;SDS011;11780;13.904;100.620;2023-11-18T08:32:55;19.23;;;9.48;;
23222;SDS011;11780;13.904;100.620;2023-11-18T08:35:32;23.20;;;9.07;;
23222;SDS011;11780;13.904;100.620;2023-11-18T08:38:02;16.55;;;8.65;;
23222;SDS011;11780;13.904;100.620;2023-11-18T08:40:33;18.05;;;9.23;;
23222;SDS011;11780;13.904;100.620;2023-11-18T08:43:05;13.18;;;7.88;;
23222;SDS011;11780;13.904;100.620;2023-11-18T09:00:42;30.80;;;14.15;;
23222;SDS011;11780;13.904;100.620;2023-11-18T09:03:16;25.55;;;11.07;;
23222;SDS011;11780;13.904;100.620;2023-11-18T09:05:47;17.40;;;9.65;;
23222;SDS011;11780;13.904;100.620;2023-11-18T09:08:27;20.23;;;9.95;;
23222;SDS011;11780;13.904;100.620;2023-11-18T09:11:02;20.90;;;10.98;;
23222;SDS011;11780;13.904;100.620;2023-11-18T09:13:37;20.50;;;11.10;;
23222;SDS011;11780;13.904;100.620;2023-11-18T09:16:08;18.90;;;10.10;;
23222;SDS011;11780;13.904;100.620;2023-11-18T09:18:40;17.42;;;9.93;;
23222;SDS011;11780;13.904;100.620;2023-11-18T09:21:14;21.55;;;10.32;;
23222;SDS011;11780;13.904;100.620;2023-11-18T09:23:48;22.98;;;10.38;;
23222;SDS011;11780;13.904;100.620;2023-11-18T09:26:18;23.38;;;11.52;;
23222;SDS011;11780;13.904;100.620;2023-11-18T09:28:50;24.35;;;11.20;;
23222;SDS011;11780;13.904;100.620;2023-11-18T09:31:21;21.05;;;9.98;;
23222;SDS011;11780;13.904;100.620;2023-11-18T09:33:52;16.80;;;10.15;;
23222;SDS011;11780;13.904;100.620;2023-11-18T09:36:22;19.60;;;9.98;;
23222;SDS011;11780;13.904;100.620;2023-11-18T09:38:53;14.87;;;9.70;;
23222;SDS011;11780;13.904;100.620;2023-11-18T09:41:23;16.85;;;9.77;;
23222;SDS011;11780;13.904;100.620;2023-11-18T09:43:57;17.98;;;9.43;;
23222;SDS011;11780;13.904;100.620;2023-11-18T09:46:31;22.38;;;9.65;;
23222;SDS011;11780;13.904;100.620;2023-11-18T09:49:17;17.15;;;8.70;;
23222;SDS011;11780;13.904;100.620;2023-11-18T09:52:03;17.33;;;9.98;;
23222;SDS011;11780;13.904;100.620;2023-11-18T09:54:53;20.67;;;9.45;;
23222;SDS011;11780;13.904;100.620;2023-11-18T09:57:40;17.05;;;9.35;;
23222;SDS011;11780;13.904;100.620;2023-11-18T10:00:15;16.23;;;10.65;;
23222;SDS011;11780;13.904;100.620;2023-11-18T10:02:55;20.77;;;10.30;;
23222;SDS011;11780;13.904;100.620;2023-11-18T10:05:27;16.08;;;10.38;;
23222;SDS011;11780;13.904;100.620;2023-11-18T10:07:59;21.35;;;10.45;;
23222;SDS011;11780;13.904;100.620;2023-11-18T10:10:31;27.02;;;15.20;;
23222;SDS011;11780;13.904;100.620;2023-11-18T10:13:07;21.60;;;12.23;;
23222;SDS011;11780;13.904;100.620;2023-11-18T10:15:50;20.00;;;11.98;;
23222;SDS011;11780;13.904;100.620;2023-11-18T10:18:23;21.45;;;10.70;;
23222;SDS011;11780;13.904;100.620;2023-11-18T10:20:57;23.23;;;11.82;;
23222;SDS011;11780;13.904;100.620;2023-11-18T10:23:29;18.20;;;9.98;;
23222;SDS011;11780;13.904;100.620;2023-11-18T10:26:03;20.17;;;10.23;;
23222;SDS011;11780;13.904;100.620;2023-11-18T10:28:34;21.67;;;10.18;;
23222;SDS011;11780;13.904;100.620;2023-11-18T10:31:08;17.73;;;10.10;;
23222;SDS011;11780;13.904;100.620;2023-11-18T10:33:39;20.50;;;9.45;;
23222;SDS011;11780;13.904;100.620;2023-11-18T10:36:19;19.50;;;9.80;;
23222;SDS011;11780;13.904;100.620;2023-11-18T10:38:54;21.25;;;9.68;;
23222;SDS011;11780;13.904;100.620;2023-11-18T10:41:29;20.77;;;9.55;;
23222;SDS011;11780;13.904;100.620;2023-11-18T10:44:06;18.80;;;9.95;;
23222;SDS011;11780;13.904;100.620;2023-11-18T10:46:53;23.83;;;10.00;;
23222;SDS011;11780;13.904;100.620;2023-11-18T10:49:29;19.23;;;10.25;;
23222;SDS011;11780;13.904;100.620;2023-11-18T10:52:06;17.88;;;10.80;;
23222;SDS011;11780;13.904;100.620;2023-11-18T10:54:37;28.77;;;15.45;;
23222;SDS011;11780;13.904;100.620;2023-11-18T10:57:23;22.60;;;12.52;;
23222;SDS011;11780;13.904;100.620;2023-11-18T11:00:04;24.45;;;12.02;;
23222;SDS011;11780;13.904;100.620;2023-11-18T11:02:48;25.90;;;12.90;;
23222;SDS011;11780;13.904;100.620;2023-11-18T11:05:28;24.02;;;11.75;;
23222;SDS011;11780;13.904;100.620;2023-11-18T11:08:02;27.40;;;13.38;;
23222;SDS011;11780;13.904;100.620;2023-11-18T11:10:34;20.30;;;12.50;;
23222;SDS011;11780;13.904;100.620;2023-11-18T11:13:05;23.88;;;12.95;;
23222;SDS011;11780;13.904;100.620;2023-11-18T11:15:41;25.33;;;12.55;;
23222;SDS011;11780;13.904;100.620;2023-11-18T11:18:23;26.98;;;11.27;;
23222;SDS011;11780;13.904;100.620;2023-11-18T11:21:07;20.65;;;11.15;;
23222;SDS011;11780;13.904;100.620;2023-11-18T11:31:43;24.20;;;12.48;;
23222;SDS011;11780;13.904;100.620;2023-11-18T11:34:22;22.80;;;12.30;;
23222;SDS011;11780;13.904;100.620;2023-11-18T11:36:56;23.83;;;12.15;;
23222;SDS011;11780;13.904;100.620;2023-11-18T11:39:29;23.50;;;11.32;;
23222;SDS011;11780;13.904;100.620;2023-11-18T11:42:05;18.65;;;11.27;;
23222;SDS011;11780;13.904;100.620;2023-11-18T11:44:38;23.42;;;13.30;;
23222;SDS011;11780;13.904;100.620;2023-11-18T11:47:11;35.53;;;17.05;;
23222;SDS011;11780;13.904;100.620;2023-11-18T11:49:47;27.65;;;14.80;;
23222;SDS011;11780;13.904;100.620;2023-11-18T11:52:31;29.92;;;14.00;;
23222;SDS011;11780;13.904;100.620;2023-11-18T11:55:12;31.80;;;13.52;;
23222;SDS011;11780;13.904;100.620;2023-11-18T11:58:02;23.83;;;13.07;;
23222;SDS011;11780;13.904;100.620;2023-11-18T12:00:32;21.48;;;12.85;;
23222;SDS011;11780;13.904;100.620;2023-11-18T12:03:04;30.10;;;13.82;;
23222;SDS011;11780;13.904;100.620;2023-11-18T12:05:42;26.58;;;13.40;;
23222;SDS011;11780;13.904;100.620;2023-11-18T12:08:13;24.50;;;14.20;;
23222;SDS011;11780;13.904;100.620;2023-11-18T12:10:50;22.77;;;13.68;;
23222;SDS011;11780;13.904;100.620;2023-11-18T12:13:27;24.75;;;13.68;;
23222;SDS011;11780;13.904;100.620;2023-11-18T12:16:01;22.52;;;13.73;;
23222;SDS011;11780;13.904;100.620;2023-11-18T12:18:34;25.55;;;12.93;;
23222;SDS011;11780;13.904;100.620;2023-11-18T12:21:06;24.60;;;13.57;;
23222;SDS011;11780;13.904;100.620;2023-11-18T12:26:47;26.95;;;13.55;;
23222;SDS011;11780;13.904;100.620;2023-11-18T12:29:32;23.48;;;13.57;;
23222;SDS011;11780;13.904;100.620;2023-11-18T12:32:05;24.27;;;13.48;;
23222;SDS011;11780;13.904;100.620;2023-11-18T12:34:51;25.83;;;14.80;;
23222;SDS011;11780;13.904;100.620;2023-11-18T12:41:02;24.95;;;13.90;;
23222;SDS011;11780;13.904;100.620;2023-11-18T12:43:22;27.13;;;15.40;;
23222;SDS011;11780;13.904;100.620;2023-11-18T12:46:25;25.27;;;15.13;;
23222;SDS011;11780;13.904;100.620;2023-11-18T12:49:19;28.30;;;15.27;;
23222;SDS011;11780;13.904;100.620;2023-11-18T12:51:53;23.88;;;14.35;;
23222;SDS011;11780;13.904;100.620;2023-11-18T12:54:28;25.60;;;13.57;;
23222;SDS011;11780;13.904;100.620;2023-11-18T12:57:00;22.20;;;13.23;;
23222;SDS011;11780;13.904;100.620;2023-11-18T12:59:31;26.17;;;15.00;;
23222;SDS011;11780;13.904;100.620;2023-11-18T13:02:02;27.67;;;15.43;;
23222;SDS011;11780;13.904;100.620;2023-11-18T13:04:34;25.50;;;14.77;;
23222;SDS011;11780;13.904;100.620;2023-11-18T13:07:04;31.65;;;15.60;;
23222;SDS011;11780;13.904;100.620;2023-11-18T13:09:37;31.45;;;15.43;;
23222;SDS011;11780;13.904;100.620;2023-11-18T13:12:10;26.35;;;15.15;;
23222;SDS011;11780;13.904;100.620;2023-11-18T13:14:44;30.52;;;15.43;;
23222;SDS011;11780;13.904;100.620;2023-11-18T13:17:15;27.88;;;15.52;;
23222;SDS011;11780;13.904;100.620;2023-11-18T13:19:46;26.52;;;14.68;;
23222;SDS011;11780;13.904;100.620;2023-11-18T13:22:21;28.10;;;15.02;;
23222;SDS011;11780;13.904;100.620;2023-11-18T13:25:08;27.55;;;15.27;;
23222;SDS011;11780;13.904;100.620;2023-11-18T13:30:10;31.48;;;16.42;;
23222;SDS011;11780;13.904;100.620;2023-11-18T13:32:42;26.98;;;16.33;;
23222;SDS011;11780;13.904;100.620;2023-11-18T13:35:13;28.33;;;15.60;;
23222;SDS011;11780;13.904;100.620;2023-11-18T13:37:48;27.58;;;16.27;;
23222;SDS011;11780;13.904;100.620;2023-11-18T13:40:18;29.40;;;18.33;;
23222;SDS011;11780;13.904;100.620;2023-11-18T13:43:00;32.25;;;17.85;;
23222;SDS011;11780;13.904;100.620;2023-11-18T13:45:34;28.73;;;17.95;;
23222;SDS011;11780;13.904;100.620;2023-11-18T13:48:05;30.45;;;18.40;;
23222;SDS011;11780;13.904;100.620;2023-11-18T13:50:40;28.30;;;17.10;;
23222;SDS011;11780;13.904;100.620;2023-11-18T13:53:12;34.22;;;19.13;;
23222;SDS011;11780;13.904;100.620;2023-11-18T13:55:43;32.93;;;18.30;;
23222;SDS011;11780;13.904;100.620;2023-11-18T13:58:13;34.05;;;18.88;;
23222;SDS011;11780;13.904;100.620;2023-11-18T14:00:44;31.48;;;18.75;;
23222;SDS011;11780;13.904;100.620;2023-11-18T14:03:15;30.48;;;17.60;;
23222;SDS011;11780;13.904;100.620;2023-11-18T14:05:46;25.03;;;17.67;;
23222;SDS011;11780;13.904;100.620;2023-11-18T14:08:19;25.70;;;17.20;;
23222;SDS011;11780;13.904;100.620;2023-11-18T14:10:49;29.15;;;17.30;;
23222;SDS011;11780;13.904;100.620;2023-11-18T14:13:29;25.13;;;16.58;;
23222;SDS011;11780;13.904;100.620;2023-11-18T14:16:00;31.65;;;16.60;;
23222;SDS011;11780;13.904;100.620;2023-11-18T14:18:33;28.08;;;16.55;;
23222;SDS011;11780;13.904;100.620;2023-11-18T14:21:05;24.10;;;16.05;;
23222;SDS011;11780;13.904;100.620;2023-11-18T14:23:36;25.48;;;16.08;;
23222;SDS011;11780;13.904;100.620;2023-11-18T14:26:07;22.20;;;14.40;;
23222;SDS011;11780;13.904;100.620;2023-11-18T14:28:37;26.95;;;15.00;;
23222;SDS011;11780;13.904;100.620;2023-11-18T14:31:07;21.92;;;14.63;;
23222;SDS011;11780;13.904;100.620;2023-11-18T14:33:40;22.95;;;15.50;;
23222;SDS011;11780;13.904;100.620;2023-11-18T14:36:11;26.85;;;15.10;;
23222;SDS011;11780;13.904;100.620;2023-11-18T14:38:41;27.00;;;15.63;;
23222;SDS011;11780;13.904;100.620;2023-11-18T14:41:18;24.30;;;15.52;;
23222;SDS011;11780;13.904;100.620;2023-11-18T14:43:55;29.88;;;16.30;;
23222;SDS011;11780;13.904;100.620;2023-11-18T14:46:27;25.27;;;16.58;;
23222;SDS011;11780;13.904;100.620;2023-11-18T14:48:57;25.38;;;15.25;;
23222;SDS011;11780;13.904;100.620;2023-11-18T14:51:28;22.50;;;14.93;;
23222;SDS011;11780;13.904;100.620;2023-11-18T14:53:58;23.48;;;14.65;;
23222;SDS011;11780;13.904;100.620;2023-11-18T14:56:29;25.63;;;14.65;;
23222;SDS011;11780;13.904;100.620;2023-11-18T14:58:59;25.40;;;14.23;;
23222;SDS011;11780;13.904;100.620;2023-11-18T15:01:29;18.63;;;14.18;;
23222;SDS011;11780;13.904;100.620;2023-11-18T15:04:02;25.75;;;15.35;;
23222;SDS011;11780;13.904;100.620;2023-11-18T15:06:37;21.33;;;14.18;;
23222;SDS011;11780;13.904;100.620;2023-11-18T15:09:15;20.77;;;14.40;;
23222;SDS011;11780;13.904;100.620;2023-11-18T15:11:45;19.10;;;14.40;;
23222;SDS011;11780;13.904;100.620;2023-11-18T15:14:25;21.25;;;14.77;;
23222;SDS011;11780;13.904;100.620;2023-11-18T15:16:56;23.55;;;14.75;;
23222;SDS011;11780;13.904;100.620;2023-11-18T15:19:26;23.33;;;15.53;;
23222;SDS011;11780;13.904;100.620;2023-11-18T15:21:57;21.40;;;15.57;;
23222;SDS011;11780;13.904;100.620;2023-11-18T15:24:29;27.05;;;15.38;;
23222;SDS011;11780;13.904;100.620;2023-11-18T15:27:03;22.77;;;15.57;;
23222;SDS011;11780;13.904;100.620;2023-11-18T15:29:34;25.10;;;15.20;;
23222;SDS011;11780;13.904;100.620;2023-11-18T15:32:08;25.92;;;14.48;;
23222;SDS011;11780;13.904;100.620;2023-11-18T15:34:38;19.70;;;13.73;;
23222;SDS011;11780;13.904;100.620;2023-11-18T15:37:11;22.02;;;14.25;;
23222;SDS011;11780;13.904;100.620;2023-11-18T15:39:42;25.57;;;15.37;;